createdAt,value
2018-06-09T00:01:10.273Z,82.30
2018-06-09T00:03:38.474Z,82.10
2018-06-09T00:06:07.044Z,82.60
2018-06-09T00:08:35.201Z,83.30
2018-06-09T00:11:03.366Z,83.70
2018-06-09T00:13:31.535Z,83.50
2018-06-09T00:15:59.706Z,81.50
2018-06-09T00:18:28.315Z,81.50
2018-06-09T00:20:56.499Z,82.10
2018-06-09T00:23:24.694Z,81.60
2018-06-09T00:25:52.890Z,81.20
2018-06-09T00:28:21.073Z,80.70
2018-06-09T00:30:49.266Z,80.40
2018-06-09T00:33:17.478Z,80.00
2018-06-09T00:35:45.669Z,79.30
2018-06-09T00:38:13.873Z,79.80
2018-06-09T00:40:42.044Z,80.30
2018-06-09T00:43:10.411Z,80.70
2018-06-09T00:45:38.630Z,81.00
2018-06-09T00:48:06.854Z,81.50
2018-06-09T00:50:35.025Z,81.30
2018-06-09T00:53:03.207Z,81.60
2018-06-09T00:55:31.402Z,81.10
2018-06-09T00:58:00.138Z,81.50
2018-06-09T01:00:28.336Z,81.70
2018-06-09T01:02:56.526Z,81.40
2018-06-09T01:05:24.712Z,80.40
2018-06-09T01:07:52.894Z,81.90
2018-06-09T01:10:21.082Z,81.10
2018-06-09T01:12:49.250Z,81.00
2018-06-09T01:15:17.436Z,80.60
2018-06-09T01:17:45.625Z,80.00
2018-06-09T01:20:13.800Z,80.60
2018-06-09T01:22:42.003Z,80.20
2018-06-09T01:25:10.197Z,80.90
2018-06-09T01:27:38.412Z,80.80
2018-06-09T01:30:06.591Z,81.50
2018-06-09T01:32:34.787Z,80.70
2018-06-09T01:35:03.030Z,80.60
2018-06-09T01:37:31.227Z,80.20
2018-06-09T01:39:59.421Z,80.10
2018-06-09T01:42:27.679Z,79.90
2018-06-09T01:44:55.875Z,79.90
2018-06-09T01:47:24.060Z,79.90
2018-06-09T01:49:52.268Z,80.30
2018-06-09T01:52:20.446Z,80.30
2018-06-09T01:54:48.641Z,80.20
2018-06-09T01:57:16.825Z,80.60
2018-06-09T01:59:45.004Z,81.00
2018-06-09T02:02:13.211Z,81.30
2018-06-09T02:04:41.391Z,82.10
2018-06-09T02:07:09.656Z,83.70
2018-06-09T02:09:37.831Z,83.40
2018-06-09T02:12:06.011Z,82.80
2018-06-09T02:14:34.186Z,82.30
2018-06-09T02:17:02.364Z,82.30
2018-06-09T02:19:30.561Z,83.20
2018-06-09T02:21:58.757Z,81.10
2018-06-09T02:24:26.929Z,81.60
2018-06-09T02:26:55.109Z,82.00
2018-06-09T02:29:23.507Z,80.90
2018-06-09T02:31:51.691Z,81.20
2018-06-09T02:34:19.882Z,81.20
2018-06-09T02:36:48.070Z,81.40
2018-06-09T02:39:16.296Z,81.30
2018-06-09T02:41:44.480Z,81.10
2018-06-09T02:44:12.653Z,81.40
2018-06-09T02:46:40.864Z,81.40
2018-06-09T02:51:37.013Z,80.90
2018-06-09T02:54:05.206Z,80.70
2018-06-09T02:56:33.387Z,79.60
2018-06-09T02:59:01.611Z,79.60
2018-06-09T03:01:29.838Z,80.40
2018-06-09T03:03:57.992Z,80.90
2018-06-09T03:06:26.168Z,81.10
2018-06-09T03:08:54.382Z,80.70
2018-06-09T03:11:22.558Z,81.30
2018-06-09T03:13:50.733Z,80.90
2018-06-09T03:16:19.502Z,80.80
2018-06-09T03:18:47.700Z,80.70
2018-06-09T03:21:15.929Z,80.30
2018-06-09T03:23:44.132Z,81.00
2018-06-09T03:26:12.338Z,80.60
2018-06-09T03:28:40.518Z,80.90
2018-06-09T03:31:08.723Z,82.80
2018-06-09T03:33:36.902Z,81.70
2018-06-09T03:36:05.130Z,83.00
2018-06-09T03:38:33.314Z,81.90
2018-06-09T03:41:01.515Z,81.60
2018-06-09T03:43:29.687Z,81.90
2018-06-09T03:45:58.307Z,81.20
2018-06-09T03:48:26.487Z,81.60
2018-06-09T03:50:54.676Z,81.80
2018-06-09T03:53:22.874Z,81.70
2018-06-09T03:55:51.050Z,81.80
2018-06-09T04:00:47.200Z,80.70
2018-06-09T04:05:43.341Z,80.40
2018-06-09T04:08:11.521Z,80.60
2018-06-09T04:10:39.722Z,80.60
2018-06-09T04:13:07.927Z,80.90
2018-06-09T04:15:36.125Z,80.90
2018-06-09T04:18:04.325Z,81.20
2018-06-09T04:20:32.519Z,81.50
2018-06-09T04:23:00.698Z,80.90
2018-06-09T04:25:28.906Z,81.60
2018-06-09T04:27:57.105Z,81.30
2018-06-09T04:32:53.231Z,82.60
2018-06-09T04:35:21.429Z,82.50
2018-06-09T04:40:17.525Z,82.60
2018-06-09T04:42:45.745Z,83.00
2018-06-09T04:45:13.926Z,83.70
2018-06-09T04:47:42.120Z,84.70
2018-06-09T04:50:10.309Z,85.20
2018-06-09T04:52:38.556Z,85.70
2018-06-09T04:55:06.775Z,85.50
2018-06-09T04:57:34.954Z,85.60
2018-06-09T05:00:03.165Z,86.10
2018-06-09T05:02:31.353Z,85.60
2018-06-09T05:04:59.533Z,85.80
2018-06-09T05:07:27.725Z,85.80
2018-06-09T05:09:55.922Z,85.70
2018-06-09T05:12:24.094Z,85.10
2018-06-09T05:14:52.290Z,84.10
2018-06-09T05:17:20.853Z,83.50
2018-06-09T05:19:49.076Z,83.00
2018-06-09T05:22:17.255Z,83.00
2018-06-09T05:24:45.455Z,81.60
2018-06-09T05:27:13.643Z,80.00
2018-06-09T05:29:41.829Z,80.70
2018-06-09T05:32:10.021Z,79.60
2018-06-09T05:34:38.216Z,79.30
2018-06-09T05:37:06.439Z,79.50
2018-06-09T05:39:34.641Z,78.50
2018-06-09T05:42:02.820Z,77.10
2018-06-09T05:44:31.002Z,75.70
2018-06-09T05:46:59.205Z,76.40
2018-06-09T05:49:27.424Z,76.90
2018-06-09T05:51:55.584Z,76.40
2018-06-09T05:54:23.778Z,76.00
2018-06-09T05:56:51.975Z,75.30
2018-06-09T05:59:20.163Z,73.70
2018-06-09T06:01:48.341Z,71.90
2018-06-09T06:04:16.533Z,71.70
2018-06-09T06:06:44.748Z,72.50
2018-06-09T06:09:12.936Z,72.40
2018-06-09T06:16:37.042Z,71.40
2018-06-09T06:21:33.186Z,73.80
2018-06-09T06:26:29.309Z,74.10
2018-06-09T06:28:57.493Z,74.00
2018-06-09T06:31:25.662Z,72.60
2018-06-09T06:33:53.911Z,73.20
2018-06-09T06:36:22.193Z,72.30
2018-06-09T06:38:50.423Z,73.80
2018-06-09T06:41:18.681Z,74.00
2018-06-09T06:43:46.956Z,71.50
2018-06-09T06:48:43.195Z,72.20
2018-06-09T06:53:39.451Z,70.30
2018-06-09T06:56:07.709Z,70.20
2018-06-09T07:03:31.952Z,70.00
2018-06-09T07:06:00.193Z,69.20
2018-06-09T07:08:28.478Z,68.50
2018-06-09T07:10:56.768Z,67.50
2018-06-09T07:13:25.049Z,67.50
2018-06-09T07:15:53.319Z,67.50
2018-06-09T07:18:21.568Z,66.10
2018-06-09T07:20:49.844Z,64.00
2018-06-09T07:23:18.120Z,65.10
2018-06-09T07:25:46.398Z,65.10
2018-06-09T07:28:14.605Z,65.90
2018-06-09T07:30:42.869Z,65.00
2018-06-09T07:35:39.118Z,65.30
2018-06-09T07:38:07.337Z,64.10
2018-06-09T07:40:35.659Z,64.10
2018-06-09T07:43:03.952Z,64.90
2018-06-09T07:45:32.227Z,63.80
2018-06-09T07:48:00.500Z,62.90
2018-06-09T07:50:28.767Z,63.80
2018-06-09T07:52:57.055Z,62.30
2018-06-09T07:55:25.319Z,62.70
2018-06-09T07:57:53.587Z,64.10
2018-06-09T08:00:21.768Z,62.90
2018-06-09T08:07:45.838Z,63.10
2018-06-09T08:10:14.023Z,61.70
2018-06-09T08:12:42.228Z,61.90
2018-06-09T08:15:10.464Z,62.30
2018-06-09T08:17:38.685Z,62.30
2018-06-09T08:20:06.940Z,63.70
2018-06-09T08:22:35.107Z,63.70
2018-06-09T08:25:03.300Z,61.50
2018-06-09T08:27:31.492Z,61.60
2018-06-09T08:29:59.684Z,63.00
2018-06-09T08:32:27.884Z,60.70
2018-06-09T08:34:56.079Z,61.90
2018-06-09T08:37:24.250Z,62.90
2018-06-09T08:39:52.444Z,61.90
2018-06-09T08:42:20.633Z,61.30
2018-06-09T08:44:48.821Z,59.30
2018-06-09T08:47:17.009Z,60.20
2018-06-09T08:49:45.208Z,59.90
2018-06-09T08:52:13.402Z,60.80
2018-06-09T08:54:41.614Z,59.60
2018-06-09T08:59:37.760Z,58.00
2018-06-09T09:02:05.963Z,59.10
2018-06-09T09:04:34.154Z,58.90
2018-06-09T09:07:02.342Z,59.00
2018-06-09T09:11:58.536Z,58.20
2018-06-09T09:14:26.740Z,58.20
2018-06-09T09:16:54.971Z,57.80
2018-06-09T09:19:23.181Z,56.80
2018-06-09T09:21:51.367Z,56.70
2018-06-09T09:24:19.563Z,58.00
2018-06-09T09:29:15.728Z,57.70
2018-06-09T09:31:43.923Z,58.50
2018-06-09T09:34:12.128Z,58.50
2018-06-09T09:36:41.060Z,59.10
2018-06-09T09:41:37.689Z,59.80
2018-06-09T09:44:06.023Z,59.30
2018-06-09T09:46:34.224Z,59.20
2018-06-09T09:49:02.429Z,61.10
2018-06-09T09:51:30.609Z,62.20
2018-06-09T09:53:59.653Z,62.70
2018-06-09T09:56:27.858Z,65.70
2018-06-09T10:01:23.980Z,66.60
2018-06-09T10:03:52.165Z,65.70
2018-06-09T10:06:20.372Z,66.60
2018-06-09T10:08:48.583Z,65.80
2018-06-09T10:11:16.776Z,62.50
2018-06-09T10:13:44.994Z,61.30
2018-06-09T10:16:13.215Z,59.20
2018-06-09T10:18:41.418Z,59.80
2018-06-09T10:21:09.608Z,59.50
2018-06-09T10:23:37.808Z,60.10
2018-06-09T10:26:06.062Z,60.60
2018-06-09T10:28:34.273Z,58.90
2018-06-09T10:31:02.455Z,59.20
2018-06-09T10:33:30.653Z,58.80
2018-06-09T10:35:58.969Z,58.80
2018-06-09T10:38:27.137Z,59.00
2018-06-09T10:40:55.324Z,57.90
2018-06-09T10:43:23.519Z,59.40
2018-06-09T10:45:51.757Z,59.40
2018-06-09T10:48:19.948Z,60.30
2018-06-09T10:50:48.153Z,60.00
2018-06-09T10:53:16.336Z,59.20
2018-06-09T10:55:44.529Z,58.10
2018-06-09T10:58:12.737Z,59.00
2018-06-09T11:00:41.326Z,59.00
2018-06-09T11:03:09.509Z,58.50
2018-06-09T11:05:37.695Z,58.90
2018-06-09T11:08:05.898Z,58.40
2018-06-09T11:10:34.085Z,60.20
2018-06-09T11:15:30.525Z,61.50
2018-06-09T11:17:58.711Z,62.00
2018-06-09T11:20:26.916Z,60.10
2018-06-09T11:22:55.150Z,60.50
2018-06-09T11:25:23.353Z,61.10
2018-06-09T11:27:51.561Z,63.60
2018-06-09T11:30:19.769Z,60.60
2018-06-09T11:32:48.085Z,59.90
2018-06-09T11:35:16.253Z,60.70
2018-06-09T11:37:44.431Z,61.70
2018-06-09T11:40:12.619Z,62.20
2018-06-09T11:42:40.801Z,59.40
2018-06-09T11:45:08.986Z,59.50
2018-06-09T11:47:37.203Z,58.50
2018-06-09T11:50:05.425Z,59.10
2018-06-09T11:52:33.607Z,59.50
2018-06-09T11:55:01.784Z,60.70
2018-06-09T11:57:30.048Z,60.60
2018-06-09T11:59:58.248Z,60.70
2018-06-09T12:02:26.494Z,61.80
2018-06-09T12:04:54.690Z,60.50
2018-06-09T12:07:22.909Z,59.40
2018-06-09T12:09:51.105Z,58.50
2018-06-09T12:12:19.455Z,58.50
2018-06-09T12:14:47.640Z,58.90
2018-06-09T12:17:15.838Z,59.20
2018-06-09T12:19:44.841Z,59.10
2018-06-09T12:22:13.054Z,58.10
2018-06-09T12:24:41.231Z,59.10
2018-06-09T12:27:09.455Z,58.20
2018-06-09T12:29:37.638Z,58.80
2018-06-09T12:32:05.850Z,58.40
2018-06-09T12:34:34.022Z,58.10
2018-06-09T12:37:02.210Z,57.00
2018-06-09T12:44:26.502Z,56.50
2018-06-09T12:46:54.712Z,58.30
2018-06-09T12:49:22.926Z,58.90
2018-06-09T12:51:51.169Z,57.00
2018-06-09T12:54:19.379Z,56.60
2018-06-09T12:56:47.572Z,56.60
2018-06-09T12:59:15.827Z,57.30
2018-06-09T13:01:44.001Z,56.80
2018-06-09T13:04:12.203Z,56.10
2018-06-09T13:06:40.392Z,55.70
2018-06-09T13:11:36.518Z,55.30
2018-06-09T13:14:04.801Z,53.60
2018-06-09T13:16:32.935Z,53.20
2018-06-09T13:19:01.125Z,51.90
2018-06-09T13:21:29.326Z,52.20
2018-06-09T13:26:25.685Z,50.70
2018-06-09T13:28:53.974Z,49.20
2018-06-09T13:31:22.639Z,50.10
2018-06-09T13:33:50.863Z,49.60
2018-06-09T13:36:19.125Z,50.20
2018-06-09T13:38:47.316Z,50.80
2018-06-09T13:41:15.536Z,51.10
2018-06-09T13:48:40.126Z,50.50
2018-06-09T13:51:08.331Z,49.00
2018-06-09T13:53:36.537Z,49.10
2018-06-09T13:56:04.721Z,49.60
2018-06-09T13:58:32.917Z,49.40
2018-06-09T14:01:01.123Z,49.10
2018-06-09T14:05:57.239Z,48.30
2018-06-09T14:08:25.431Z,49.40
2018-06-09T14:10:53.667Z,48.40
2018-06-09T14:13:21.821Z,49.30
2018-06-09T14:15:50.010Z,50.30
2018-06-09T14:18:18.194Z,50.00
2018-06-09T14:20:46.365Z,51.60
2018-06-09T14:23:14.562Z,50.00
2018-06-09T14:25:42.750Z,49.70
2018-06-09T14:30:38.899Z,49.90
2018-06-09T14:35:35.032Z,51.30
2018-06-09T14:38:03.239Z,51.50
2018-06-09T14:40:31.435Z,51.10
2018-06-09T14:42:59.605Z,49.70
2018-06-09T14:45:27.800Z,49.50
2018-06-09T14:47:55.989Z,50.70
2018-06-09T14:50:24.210Z,49.20
2018-06-09T14:52:52.394Z,49.50
2018-06-09T14:55:20.612Z,50.80
2018-06-09T14:57:48.798Z,52.20
2018-06-09T15:00:17.009Z,50.50
2018-06-09T15:02:45.194Z,50.70
2018-06-09T15:05:13.506Z,50.50
2018-06-09T15:07:41.676Z,50.70
2018-06-09T15:10:09.880Z,50.50
2018-06-09T15:12:38.068Z,50.70
2018-06-09T15:15:06.281Z,50.90
2018-06-09T15:17:34.474Z,51.10
2018-06-09T15:20:02.668Z,50.80
2018-06-09T15:24:58.837Z,50.30
2018-06-09T15:27:27.019Z,51.50
2018-06-09T15:29:55.218Z,51.60
2018-06-09T15:32:23.407Z,51.00
2018-06-09T15:34:51.594Z,51.60
2018-06-09T15:37:19.778Z,49.80
2018-06-09T15:42:15.925Z,49.00
2018-06-09T15:47:12.084Z,49.70
2018-06-09T15:49:40.303Z,51.00
2018-06-09T15:52:08.550Z,50.40
2018-06-09T15:54:36.715Z,50.60
2018-06-09T15:57:04.971Z,50.30
2018-06-09T15:59:33.197Z,49.20
2018-06-09T16:02:01.429Z,49.90
2018-06-09T16:04:29.614Z,49.10
2018-06-09T16:06:57.925Z,49.70
2018-06-09T16:09:26.125Z,49.00
2018-06-09T16:11:54.315Z,49.20
2018-06-09T16:14:22.496Z,49.40
2018-06-09T16:16:50.687Z,49.20
2018-06-09T16:19:18.877Z,49.70
2018-06-09T16:21:47.057Z,48.50
2018-06-09T16:24:15.245Z,47.80
2018-06-09T16:26:43.431Z,47.90
2018-06-09T16:29:11.639Z,47.90
2018-06-09T16:34:07.768Z,48.10
2018-06-09T16:39:06.125Z,47.90
2018-06-09T16:41:34.486Z,47.70
2018-06-09T16:44:02.707Z,47.60
2018-06-09T16:46:30.898Z,46.70
2018-06-09T16:48:59.098Z,47.20
2018-06-09T16:51:27.301Z,47.50
2018-06-09T16:53:55.939Z,48.20
2018-06-09T16:56:24.285Z,47.80
2018-06-09T16:58:52.651Z,47.70
2018-06-09T17:01:20.850Z,47.90
2018-06-09T17:03:49.189Z,44.70
2018-06-09T17:06:18.150Z,44.10
2018-06-09T17:08:46.374Z,44.60
2018-06-09T17:11:14.800Z,44.60
2018-06-09T17:13:42.995Z,43.90
2018-06-09T17:16:11.217Z,44.70
2018-06-09T17:18:39.387Z,46.00
2018-06-09T17:21:07.839Z,46.40
2018-06-09T17:23:36.249Z,46.90
2018-06-09T17:26:04.877Z,47.50
2018-06-09T17:28:33.337Z,47.70
2018-06-09T17:31:01.866Z,47.10
2018-06-09T17:33:30.067Z,46.90
2018-06-09T17:35:58.266Z,46.00
2018-06-09T17:38:26.490Z,46.20
2018-06-09T17:40:54.668Z,45.90
2018-06-09T17:43:22.848Z,45.70
2018-06-09T17:45:51.052Z,45.20
2018-06-09T17:48:19.239Z,47.50
2018-06-09T17:50:47.459Z,46.60
2018-06-09T17:53:15.677Z,46.60
2018-06-09T17:55:43.898Z,46.60
2018-06-09T17:58:12.132Z,47.40
2018-06-09T18:00:40.316Z,47.40
2018-06-09T18:03:08.525Z,47.60
2018-06-09T18:05:36.711Z,48.00
2018-06-09T18:08:04.911Z,48.20
2018-06-09T18:13:01.086Z,48.30
2018-06-09T18:15:29.332Z,49.20
2018-06-09T18:20:25.791Z,51.10
2018-06-09T18:22:54.053Z,51.60
2018-06-09T18:25:22.185Z,52.10
2018-06-09T18:27:50.394Z,52.50
2018-06-09T18:30:18.605Z,53.00
2018-06-09T18:32:47.205Z,53.40
2018-06-09T18:35:15.393Z,53.70
2018-06-09T18:37:43.588Z,53.80
2018-06-09T18:40:11.789Z,53.80
2018-06-09T18:42:40.626Z,53.50
2018-06-09T18:45:08.831Z,53.50
2018-06-09T18:47:37.587Z,53.60
2018-06-09T18:50:06.104Z,53.50
2018-06-09T18:52:34.376Z,53.30
2018-06-09T18:55:02.589Z,53.90
2018-06-09T18:57:30.774Z,53.60
2018-06-09T18:59:58.961Z,54.00
2018-06-09T19:02:27.160Z,54.40
2018-06-09T19:04:55.368Z,55.10
2018-06-09T19:07:23.576Z,56.20
2018-06-09T19:09:51.860Z,57.00
2018-06-09T19:12:20.263Z,57.60
2018-06-09T19:14:48.464Z,58.80
2018-06-09T19:17:16.684Z,59.40
2018-06-09T19:19:44.888Z,60.30
2018-06-09T19:22:13.132Z,61.40
2018-06-09T19:24:41.314Z,66.20
2018-06-09T19:27:09.486Z,67.60
2018-06-09T19:29:39.037Z,68.80
2018-06-09T19:32:07.383Z,70.70
2018-06-09T19:34:35.576Z,71.20
2018-06-09T19:37:03.766Z,73.30
2018-06-09T19:39:31.950Z,74.40
2018-06-09T19:44:28.625Z,75.20
2018-06-09T19:46:56.826Z,75.90
2018-06-09T19:49:25.020Z,75.70
2018-06-09T19:51:53.223Z,76.10
2018-06-09T19:54:21.439Z,75.90
2018-06-09T19:56:49.641Z,76.90
2018-06-09T19:59:18.273Z,77.50
2018-06-09T20:01:46.489Z,78.50
2018-06-09T20:04:14.698Z,78.90
2018-06-09T20:06:42.901Z,76.40
2018-06-09T20:09:11.190Z,76.80
2018-06-09T20:11:39.369Z,76.50
2018-06-09T20:14:07.582Z,76.50
2018-06-09T20:16:35.788Z,77.00
2018-06-09T20:19:03.994Z,75.60
2018-06-09T20:21:32.187Z,74.70
2018-06-09T20:24:00.375Z,75.90
2018-06-09T20:26:28.564Z,75.70
2018-06-09T20:28:56.795Z,75.80
2018-06-09T20:31:25.009Z,76.20
2018-06-09T20:36:21.155Z,76.50
2018-06-09T20:41:17.429Z,77.40
2018-06-09T20:43:45.625Z,76.80
2018-06-09T20:46:13.859Z,77.30
2018-06-09T20:48:42.067Z,77.00
2018-06-09T20:51:10.284Z,77.40
2018-06-09T20:53:38.486Z,76.00
2018-06-09T20:56:06.689Z,76.70
2018-06-09T20:58:38.950Z,76.80
2018-06-09T21:01:07.318Z,77.00
2018-06-09T21:03:35.944Z,77.30
2018-06-09T21:06:04.647Z,77.40
2018-06-09T21:08:32.856Z,77.60
2018-06-09T21:11:01.058Z,78.60
2018-06-09T21:13:29.288Z,78.60
2018-06-09T21:15:57.454Z,78.00
2018-06-09T21:18:25.662Z,77.40
2018-06-09T21:20:53.868Z,77.60
2018-06-09T21:23:22.050Z,77.80
2018-06-09T21:25:50.256Z,77.60
2018-06-09T21:30:56.443Z,78.20
2018-06-09T21:33:41.389Z,78.30
2018-06-09T21:38:47.333Z,77.40
2018-06-09T21:41:20.950Z,76.90
2018-06-09T21:43:54.352Z,77.40
2018-06-09T21:46:27.991Z,77.80
2018-06-09T21:48:56.174Z,77.60
2018-06-09T21:51:25.188Z,78.70
2018-06-09T21:53:53.361Z,79.30
2018-06-09T21:56:21.557Z,79.20
2018-06-09T21:58:49.745Z,79.90
2018-06-09T22:01:17.967Z,80.40
2018-06-09T22:03:46.236Z,79.00
2018-06-09T22:06:14.438Z,79.80
2018-06-09T22:08:42.638Z,80.70
2018-06-09T22:11:10.848Z,81.50
2018-06-09T22:13:39.055Z,81.90
2018-06-09T22:16:07.272Z,82.30
2018-06-09T22:18:35.460Z,82.40
2018-06-09T22:21:03.656Z,83.50
2018-06-09T22:23:32.223Z,82.20
2018-06-09T22:26:00.590Z,84.60
2018-06-09T22:28:28.787Z,83.90
2018-06-09T22:30:57.001Z,85.00
2018-06-09T22:33:25.185Z,84.60
2018-06-09T22:35:53.388Z,84.80
2018-06-09T22:38:21.596Z,84.90
2018-06-09T22:40:49.800Z,83.50
2018-06-09T22:43:18.005Z,83.40
2018-06-09T22:48:14.141Z,84.00
2018-06-09T22:50:42.496Z,83.20
2018-06-09T22:53:14.454Z,82.00
2018-06-09T22:55:42.857Z,82.80
2018-06-09T22:58:11.379Z,82.50
2018-06-09T23:00:47.297Z,83.20
2018-06-09T23:03:16.171Z,82.70
2018-06-09T23:05:44.881Z,83.20
2018-06-09T23:08:13.077Z,83.80
2018-06-09T23:10:41.290Z,83.90
2018-06-09T23:13:09.500Z,84.60
2018-06-09T23:18:05.683Z,83.60
2018-06-09T23:20:33.884Z,82.90
2018-06-09T23:23:02.115Z,83.40
2018-06-09T23:25:30.336Z,82.70
2018-06-09T23:27:58.560Z,82.20
2018-06-09T23:30:26.789Z,82.20
2018-06-09T23:32:54.986Z,82.10
2018-06-09T23:37:51.175Z,82.00
2018-06-09T23:40:19.367Z,81.80
2018-06-09T23:42:47.586Z,81.90
2018-06-09T23:45:15.787Z,82.40
2018-06-09T23:47:43.971Z,82.40
2018-06-09T23:50:12.191Z,82.30
2018-06-09T23:52:40.397Z,81.80
2018-06-09T23:55:09.358Z,81.60
